Capitol Logistics 203


KMIA
Miami International Airport
Miami, Florida, US
KRFD
Chicago/Rockford International Airport
Rockford, Illinois, US

Activity Log

Date Flight Route Aircraft Duration
11/12/2020 CPX203 HEDLY2 HEDLY EBAYY Q93 PRMUS Q89 ATL J89 OBK B763 3h 04m
04/09/2020 CPX203 KMIA DEEEP2 HEDLY J53 ORL J81 YULEE J45 AMG J46 VXV J99 IIU J89 OBK KRFD B763 3h 31m
01/23/2020 CPX203 WINCO2 WINCO J73 LAL CTY J91 ATL VARNM GLAZR Q118 HEVAN Q118 MZZ JOT B763 2h 58m
01/08/2020 CPX203 WINCO2 WINCO J73 LAL CTY J91 ATL VARNM GLAZR Q118 HEVAN Q118 MZZ JOT B763 3h 16m
12/31/2019 CPX450 WINCO2 WINCO J73 LAL CTY J91 ATL VARNM GLAZR Q118 HEVAN Q118 MZZ JOT B738 3h 06m
12/17/2019 CPX450 WINCO2 WINCO J73 LAL CTY J91 ATL VARNM GLAZR Q118 HEVAN Q118 MZZ JOT B738 4h 08m
11/27/2019 CPX450 WINCO2 WINCO J73 LAL CTY J91 ATL VARNM GLAZR Q118 HEVAN Q118 MZZ JOT B738 3h 25m
07/07/2019 CPX203 WINCO2 WINCO J73 LAL CTY J91 ATL VARNM GLAZR Q118 HEVAN Q118 MZZ JOT B763 2h 58m
03/13/2019 CPX203 WINCO2 WINCO J73 LAL CTY J91 ATL VARNM GLAZR Q118 HEVAN Q118 MZZ JOT B763 2h 58m
01/14/2019 CPX203 HEDLY2 HEDLY STYMY ORL TAY MCN PXV RBS JOT B763 3h 06m
01/14/2019 CPX450 WINCO2 WINCO J73 LAL CTY J91 ATL VARNM GLAZR Q118 HEVAN Q118 MZZ JOT B752 3h 45m
01/02/2019 CPX350 WINCO2 WINCO J73 LAL CTY J91 ATL VARNM GLAZR Q118 HEVAN Q118 MZZ JOT B752 3h 08m
12/18/2018 CPX514 WINCO2 WINCO J73 LAL CTY J91 ATL VARNM GLAZR Q118 HEVAN Q118 MZZ JOT B763 3h 06m
12/14/2018 CPX516 HEDLY2 HEDLY ORL VQQ AMG DBN ODF VXV IIU MACES BVT JOT B763 2h 43m
12/08/2018 CPX350 HEDLY2 HEDLY ORL VQQ AMG DBN ODF VXV IIU MACES BVT JOT B752 2h 20m
11/18/2018 CPX352 WINCO2 WINCO J73 LAL CTY J91 ATL VARNM GLAZR Q118 HEVAN Q118 MZZ JOT QUOTE B752 3h 06m

Route Details

Aircraft Information
Primary: Boeing 767-300BDSF
Backup: Not Available
Route Data
Distance: 1139nm
Sched. Duration: 3h 00m
Avg. Duration: 3h 00m (+0m)
Times Flown: 16
Recm'd Route: WINCO2 WINCO J73 LAL CTY J91 ATL VARNM GLAZR Q118 HEVAN Q118 MZZ JOT
Planned Altitude: 35,000ft
Origin Wx: KMIA 230553Z 23003KT 10SM CLR 18/17 A3004 RMK AO2 SLP173 T01830167 10228 20183 55003 $
Dest. Wx: KRFD 230554Z 00000KT 10SM CLR M12/M19 A3032 RMK AO2 SLP281 4/004 T11171189 11106 21128 410281128 51003
Notes:

Financial History
Total Freight: 1,206,082lbs
Average Load: 75,380lbs/flt
Fuel Used: 461,656lbs
Avg. Fuel Used: 28,854lbs/flt
Fuel Expense: $569,070
Avg. Fuel Expense: $35,567
Avg. Fuel Cost: $1.23/lbs
Total Gross Income: $1,650,479
Pilot Pay: $2,244
Total Expenses: $179,084
Total Revenue: $893,361
Average Revenue: $103,154.93